KARR/ARR METAR and TAF weather

Enter ICAO airport designator
Station Type Date Time Source
KARR METAR 2018/10/22 15:52 UTC NOAA

KARR 221552Z 25006KT 10SM CLR 10/03 A3006 RMK AO2 SLP184 T01000033


Station Type Date Time Source
KARR Decoded METAR 2018/10/22 15:52 UTC NOAA

CHICAGO AURORA MUNICIPAL, IL, United States (KARR) 41-46N 088-28W 215M
Oct 22, 2018 - 11:52 AM EDT / 2018.10.22 1552 UTC
Wind: from the WSW (250 degrees) at 7 MPH (6 KT):0
Visibility: 10 mile(s):0
Sky conditions: clear
Temperature: 50.0 F (10.0 C)
Dew Point: 37.9 F (3.3 C)
Relative Humidity: 63%
Pressure (altimeter): 30.06 in. Hg (1017 hPa)
ob: KARR 221552Z 25006KT 10SM CLR 10/03 A3006 RMK AO2 SLP184 T01000033
cycle: 16

Station Type Date Time Source
KARR TAF UTC NOAA

Error!


Example: see airport list